sensor_id;sensor_type;location;lat;lon;timestamp;pressure;altitude;pressure_sealevel;temperature;humidity
60061;BME280;45933;51.336;12.612;2022-11-20T00:00:00;99576.75;;;-1.60;56.43
60061;BME280;45933;51.336;12.612;2022-11-20T00:02:26;99580.94;;;-1.62;56.07
60061;BME280;45933;51.336;12.612;2022-11-20T00:04:51;99580.84;;;-1.65;55.11
60061;BME280;45933;51.336;12.612;2022-11-20T00:07:16;99579.97;;;-1.65;54.69
60061;BME280;45933;51.336;12.612;2022-11-20T00:09:42;99586.72;;;-1.67;54.50
60061;BME280;45933;51.336;12.612;2022-11-20T00:12:07;99578.94;;;-1.70;55.02
60061;BME280;45933;51.336;12.612;2022-11-20T00:14:32;99575.47;;;-1.72;55.15
60061;BME280;45933;51.336;12.612;2022-11-20T00:16:58;99575.47;;;-1.72;55.38
60061;BME280;45933;51.336;12.612;2022-11-20T00:19:23;99574.47;;;-1.76;56.23
60061;BME280;45933;51.336;12.612;2022-11-20T00:21:49;99583.72;;;-1.79;56.78
60061;BME280;45933;51.336;12.612;2022-11-20T00:24:16;99587.84;;;-1.83;57.43
60061;BME280;45933;51.336;12.612;2022-11-20T00:26:42;99573.41;;;-1.82;57.37
60061;BME280;45933;51.336;12.612;2022-11-20T00:29:08;99569.84;;;-1.86;57.18
60061;BME280;45933;51.336;12.612;2022-11-20T00:31:35;99576.59;;;-1.88;58.06
60061;BME280;45933;51.336;12.612;2022-11-20T00:34:00;99573.09;;;-1.90;58.52
60061;BME280;45933;51.336;12.612;2022-11-20T00:36:27;99572.19;;;-1.92;57.64
60061;BME280;45933;51.336;12.612;2022-11-20T00:38:54;99581.59;;;-1.91;58.25
60061;BME280;45933;51.336;12.612;2022-11-20T00:41:19;99578.22;;;-1.90;56.46
60061;BME280;45933;51.336;12.612;2022-11-20T00:43:45;99587.66;;;-1.89;56.81
60061;BME280;45933;51.336;12.612;2022-11-20T00:46:14;99585.84;;;-1.92;57.91
60061;BME280;45933;51.336;12.612;2022-11-20T00:48:40;99580.69;;;-1.93;57.58
60061;BME280;45933;51.336;12.612;2022-11-20T00:51:06;99583.19;;;-1.95;57.64
60061;BME280;45933;51.336;12.612;2022-11-20T00:53:32;99578.09;;;-1.95;57.45
60061;BME280;45933;51.336;12.612;2022-11-20T00:56:00;99577.19;;;-1.95;57.64
60061;BME280;45933;51.336;12.612;2022-11-20T00:58:30;99581.41;;;-1.96;57.48
60061;BME280;45933;51.336;12.612;2022-11-20T01:01:05;99577.13;;;-1.97;58.38
60061;BME280;45933;51.336;12.612;2022-11-20T01:03:38;99578.09;;;-1.95;57.51
60061;BME280;45933;51.336;12.612;2022-11-20T01:06:07;99576.25;;;-1.97;57.79
60061;BME280;45933;51.336;12.612;2022-11-20T01:08:35;99565.06;;;-2.01;57.59
60061;BME280;45933;51.336;12.612;2022-11-20T01:11:05;99570.13;;;-2.02;57.15
60061;BME280;45933;51.336;12.612;2022-11-20T01:13:32;99568.44;;;-2.02;57.02
60061;BME280;45933;51.336;12.612;2022-11-20T01:16:12;99570.94;;;-2.03;57.22
60061;BME280;45933;51.336;12.612;2022-11-20T01:18:40;99572.59;;;-2.05;56.86
60061;BME280;45933;51.336;12.612;2022-11-20T01:21:18;99575.19;;;-2.04;56.13
60061;BME280;45933;51.336;12.612;2022-11-20T01:23:44;99571.53;;;-2.11;56.65
60061;BME280;45933;51.336;12.612;2022-11-20T01:26:13;99571.47;;;-2.12;56.50
60061;BME280;45933;51.336;12.612;2022-11-20T01:28:39;99575.50;;;-2.19;56.75
60061;BME280;45933;51.336;12.612;2022-11-20T01:31:15;99571.25;;;-2.18;56.16
60061;BME280;45933;51.336;12.612;2022-11-20T01:33:42;99566.66;;;-2.27;56.92
60061;BME280;45933;51.336;12.612;2022-11-20T01:36:09;99575.09;;;-2.29;57.34
60061;BME280;45933;51.336;12.612;2022-11-20T01:38:35;99568.19;;;-2.32;57.15
60061;BME280;45933;51.336;12.612;2022-11-20T01:41:00;99563.88;;;-2.33;57.59
60061;BME280;45933;51.336;12.612;2022-11-20T01:43:26;99562.91;;;-2.37;57.84
60061;BME280;45933;51.336;12.612;2022-11-20T01:46:03;99562.09;;;-2.35;57.39
60061;BME280;45933;51.336;12.612;2022-11-20T01:48:59;99561.31;;;-2.33;56.26
60061;BME280;45933;51.336;12.612;2022-11-20T01:51:43;99565.28;;;-2.41;58.85
60061;BME280;45933;51.336;12.612;2022-11-20T01:54:14;99557.69;;;-2.40;57.61
60061;BME280;45933;51.336;12.612;2022-11-20T01:56:42;99549.81;;;-2.46;58.33
60061;BME280;45933;51.336;12.612;2022-11-20T01:59:10;99549.81;;;-2.46;58.19
60061;BME280;45933;51.336;12.612;2022-11-20T02:01:36;99542.09;;;-2.47;57.96
60061;BME280;45933;51.336;12.612;2022-11-20T02:04:02;99545.38;;;-2.50;58.88
60061;BME280;45933;51.336;12.612;2022-11-20T02:06:43;99541.31;;;-2.45;58.37
60061;BME280;45933;51.336;12.612;2022-11-20T02:09:09;99542.78;;;-2.51;58.82
60061;BME280;45933;51.336;12.612;2022-11-20T02:11:35;99547.03;;;-2.52;58.46
60061;BME280;45933;51.336;12.612;2022-11-20T02:14:00;99537.50;;;-2.56;59.68
60061;BME280;45933;51.336;12.612;2022-11-20T02:16:33;99538.38;;;-2.55;59.13
60061;BME280;45933;51.336;12.612;2022-11-20T02:19:03;99537.28;;;-2.62;61.06
60061;BME280;45933;51.336;12.612;2022-11-20T02:24:18;99539.16;;;-2.58;59.63
60061;BME280;45933;51.336;12.612;2022-11-20T02:26:50;99537.47;;;-2.57;59.16
60061;BME280;45933;51.336;12.612;2022-11-20T02:32:04;99536.59;;;-2.58;58.54
60061;BME280;45933;51.336;12.612;2022-11-20T02:34:30;99529.66;;;-2.60;57.32
60061;BME280;45933;51.336;12.612;2022-11-20T02:36:56;99524.53;;;-2.62;58.35
60061;BME280;45933;51.336;12.612;2022-11-20T02:39:24;99526.22;;;-2.63;58.61
60061;BME280;45933;51.336;12.612;2022-11-20T02:41:55;99526.13;;;-2.64;58.89
60061;BME280;45933;51.336;12.612;2022-11-20T02:44:21;99525.97;;;-2.69;57.66
60061;BME280;45933;51.336;12.612;2022-11-20T02:46:46;99531.00;;;-2.70;58.72
60061;BME280;45933;51.336;12.612;2022-11-20T02:49:12;99531.00;;;-2.70;58.32
60061;BME280;45933;51.336;12.612;2022-11-20T02:51:37;99530.13;;;-2.71;58.75
60061;BME280;45933;51.336;12.612;2022-11-20T02:54:03;99524.13;;;-2.73;58.44
60061;BME280;45933;51.336;12.612;2022-11-20T02:56:28;99527.53;;;-2.72;58.24
60061;BME280;45933;51.336;12.612;2022-11-20T02:58:54;99524.03;;;-2.74;58.19
60061;BME280;45933;51.336;12.612;2022-11-20T03:01:19;99524.03;;;-2.74;58.75
60061;BME280;45933;51.336;12.612;2022-11-20T03:03:45;99519.75;;;-2.75;58.30
60061;BME280;45933;51.336;12.612;2022-11-20T03:06:10;99518.88;;;-2.76;58.86
60061;BME280;45933;51.336;12.612;2022-11-20T03:08:36;99514.59;;;-2.77;58.80
60061;BME280;45933;51.336;12.612;2022-11-20T03:11:03;99517.97;;;-2.78;58.07
60061;BME280;45933;51.336;12.612;2022-11-20T03:13:29;99506.94;;;-2.77;58.68
60061;BME280;45933;51.336;12.612;2022-11-20T03:15:54;99506.91;;;-2.78;58.38
60061;BME280;45933;51.336;12.612;2022-11-20T03:18:19;99512.72;;;-2.81;58.16
60061;BME280;45933;51.336;12.612;2022-11-20T03:20:45;99516.16;;;-2.80;58.23
60061;BME280;45933;51.336;12.612;2022-11-20T03:23:10;99515.19;;;-2.84;58.12
60061;BME280;45933;51.336;12.612;2022-11-20T03:25:35;99511.69;;;-2.86;58.25
60061;BME280;45933;51.336;12.612;2022-11-20T03:28:01;99513.31;;;-2.88;58.38
60061;BME280;45933;51.336;12.612;2022-11-20T03:30:26;99511.59;;;-2.89;58.08
60061;BME280;45933;51.336;12.612;2022-11-20T03:32:53;99508.84;;;-2.94;59.21
60061;BME280;45933;51.336;12.612;2022-11-20T03:35:18;99503.72;;;-2.95;59.46
60061;BME280;45933;51.336;12.612;2022-11-20T03:37:44;99505.34;;;-2.96;59.33
60061;BME280;45933;51.336;12.612;2022-11-20T03:40:11;99505.22;;;-3.00;59.24
60061;BME280;45933;51.336;12.612;2022-11-20T03:42:36;99501.03;;;-2.98;58.67
60061;BME280;45933;51.336;12.612;2022-11-20T03:45:12;99490.69;;;-3.01;58.85
60061;BME280;45933;51.336;12.612;2022-11-20T03:47:38;99491.41;;;-3.05;60.12
60061;BME280;45933;51.336;12.612;2022-11-20T03:50:04;99495.59;;;-3.06;59.90
60061;BME280;45933;51.336;12.612;2022-11-20T03:52:29;99490.47;;;-3.07;59.74
60061;BME280;45933;51.336;12.612;2022-11-20T03:54:54;99487.84;;;-3.09;60.01
60061;BME280;45933;51.336;12.612;2022-11-20T03:57:20;99481.88;;;-3.09;59.68
60061;BME280;45933;51.336;12.612;2022-11-20T03:59:45;99476.88;;;-3.06;58.99
60061;BME280;45933;51.336;12.612;2022-11-20T04:02:10;99481.13;;;-3.07;59.11
60061;BME280;45933;51.336;12.612;2022-11-20T04:04:36;99480.16;;;-3.10;59.39
60061;BME280;45933;51.336;12.612;2022-11-20T04:07:01;99480.06;;;-3.12;59.57
60061;BME280;45933;51.336;12.612;2022-11-20T04:09:27;99481.03;;;-3.10;59.19
60061;BME280;45933;51.336;12.612;2022-11-20T04:11:52;99480.06;;;-3.12;59.60
60061;BME280;45933;51.336;12.612;2022-11-20T04:14:17;99475.75;;;-3.14;60.22
60061;BME280;45933;51.336;12.612;2022-11-20T04:16:43;99481.66;;;-3.16;61.32
60061;BME280;45933;51.336;12.612;2022-11-20T04:19:14;99481.88;;;-3.09;60.08
60061;BME280;45933;51.336;12.612;2022-11-20T04:21:40;99477.47;;;-3.13;61.20
60061;BME280;45933;51.336;12.612;2022-11-20T04:24:06;99483.44;;;-3.13;60.98
60061;BME280;45933;51.336;12.612;2022-11-20T04:26:32;99476.75;;;-3.11;60.51
60061;BME280;45933;51.336;12.612;2022-11-20T04:28:58;99481.88;;;-3.09;61.23
60061;BME280;45933;51.336;12.612;2022-11-20T04:31:27;99488.59;;;-3.11;61.67
60061;BME280;45933;51.336;12.612;2022-11-20T04:33:53;99483.50;;;-3.11;61.53
60061;BME280;45933;51.336;12.612;2022-11-20T04:36:22;99477.47;;;-3.13;61.38
60061;BME280;45933;51.336;12.612;2022-11-20T04:38:52;99475.06;;;-3.10;60.72
60061;BME280;45933;51.336;12.612;2022-11-20T04:41:20;99477.25;;;-3.20;62.19
60061;BME280;45933;51.336;12.612;2022-11-20T04:43:47;99475.84;;;-3.11;60.64
60061;BME280;45933;51.336;12.612;2022-11-20T04:46:14;99481.03;;;-3.10;60.96
60061;BME280;45933;51.336;12.612;2022-11-20T04:48:39;99475.09;;;-3.09;60.23
60061;BME280;45933;51.336;12.612;2022-11-20T04:51:05;99478.16;;;-3.18;62.26
60061;BME280;45933;51.336;12.612;2022-11-20T04:53:30;99475.09;;;-3.09;60.40
60061;BME280;45933;51.336;12.612;2022-11-20T04:56:04;99478.66;;;-3.05;60.13
60061;BME280;45933;51.336;12.612;2022-11-20T04:58:30;99482.75;;;-3.09;60.24
60061;BME280;45933;51.336;12.612;2022-11-20T05:01:07;99474.44;;;-3.05;59.85
60061;BME280;45933;51.336;12.612;2022-11-20T05:03:32;99471.69;;;-3.09;60.44
60061;BME280;45933;51.336;12.612;2022-11-20T05:06:03;99472.56;;;-3.09;59.55
60061;BME280;45933;51.336;12.612;2022-11-20T05:08:29;99470.69;;;-3.13;60.25
60061;BME280;45933;51.336;12.612;2022-11-20T05:11:10;99468.66;;;-3.22;61.44
60061;BME280;45933;51.336;12.612;2022-11-20T05:13:36;99472.25;;;-3.17;60.35
60061;BME280;45933;51.336;12.612;2022-11-20T05:16:03;99458.28;;;-3.26;60.40
60061;BME280;45933;51.336;12.612;2022-11-20T05:18:29;99468.53;;;-3.25;60.19
60061;BME280;45933;51.336;12.612;2022-11-20T05:20:56;99466.00;;;-3.25;60.73
60061;BME280;45933;51.336;12.612;2022-11-20T05:23:21;99471.47;;;-3.36;61.79
60061;BME280;45933;51.336;12.612;2022-11-20T05:25:47;99469.84;;;-3.34;61.39
60061;BME280;45933;51.336;12.612;2022-11-20T05:28:12;99466.44;;;-3.35;61.56
60061;BME280;45933;51.336;12.612;2022-11-20T05:30:37;99462.25;;;-3.33;60.78
60061;BME280;45933;51.336;12.612;2022-11-20T05:33:02;99467.31;;;-3.34;60.80
60061;BME280;45933;51.336;12.612;2022-11-20T05:35:28;99467.34;;;-3.33;60.50
60061;BME280;45933;51.336;12.612;2022-11-20T05:37:53;99465.63;;;-3.34;60.60
60061;BME280;45933;51.336;12.612;2022-11-20T05:40:19;99468.16;;;-3.34;60.90
60061;BME280;45933;51.336;12.612;2022-11-20T05:42:44;99460.47;;;-3.35;60.61
60061;BME280;45933;51.336;12.612;2022-11-20T05:45:09;99451.09;;;-3.36;60.90
60061;BME280;45933;51.336;12.612;2022-11-20T05:47:35;99455.31;;;-3.37;60.23
60061;BME280;45933;51.336;12.612;2022-11-20T05:50:01;99452.63;;;-3.40;60.78
60061;BME280;45933;51.336;12.612;2022-11-20T05:52:29;99442.59;;;-3.37;60.90
60061;BME280;45933;51.336;12.612;2022-11-20T05:54:55;99438.22;;;-3.39;59.74
60061;BME280;45933;51.336;12.612;2022-11-20T05:57:20;99439.03;;;-3.40;60.54
60061;BME280;45933;51.336;12.612;2022-11-20T05:59:46;99439.09;;;-3.39;59.30
60061;BME280;45933;51.336;12.612;2022-11-20T06:02:11;99433.88;;;-3.42;59.93
60061;BME280;45933;51.336;12.612;2022-11-20T06:04:36;99432.13;;;-3.43;59.63
60061;BME280;45933;51.336;12.612;2022-11-20T06:07:02;99426.06;;;-3.47;59.56
60061;BME280;45933;51.336;12.612;2022-11-20T06:09:27;99428.59;;;-3.47;59.56
60061;BME280;45933;51.336;12.612;2022-11-20T06:11:52;99430.19;;;-3.49;59.60
60061;BME280;45933;51.336;12.612;2022-11-20T06:14:18;99437.78;;;-3.50;59.94
60061;BME280;45933;51.336;12.612;2022-11-20T06:16:43;99437.75;;;-3.52;60.46
60061;BME280;45933;51.336;12.612;2022-11-20T06:19:08;99439.25;;;-3.57;60.78
60061;BME280;45933;51.336;12.612;2022-11-20T06:21:34;99446.13;;;-3.54;60.53
60061;BME280;45933;51.336;12.612;2022-11-20T06:23:59;99451.53;;;-3.67;62.04
60061;BME280;45933;51.336;12.612;2022-11-20T06:26:26;99449.19;;;-3.63;60.90
60061;BME280;45933;51.336;12.612;2022-11-20T06:28:53;99440.53;;;-3.66;61.32
60061;BME280;45933;51.336;12.612;2022-11-20T06:31:20;99443.09;;;-3.66;61.49
60061;BME280;45933;51.336;12.612;2022-11-20T06:33:47;99442.28;;;-3.65;60.72
60061;BME280;45933;51.336;12.612;2022-11-20T06:36:14;99444.72;;;-3.69;61.42
60061;BME280;45933;51.336;12.612;2022-11-20T06:38:41;99441.34;;;-3.67;61.51
60061;BME280;45933;51.336;12.612;2022-11-20T06:41:10;99447.31;;;-3.67;60.90
60061;BME280;45933;51.336;12.612;2022-11-20T06:43:35;99441.31;;;-3.69;61.27
60061;BME280;45933;51.336;12.612;2022-11-20T06:46:01;99445.56;;;-3.68;60.78
60061;BME280;45933;51.336;12.612;2022-11-20T06:48:27;99442.94;;;-3.70;61.49
60061;BME280;45933;51.336;12.612;2022-11-20T06:50:53;99448.66;;;-3.75;61.57
60061;BME280;45933;51.336;12.612;2022-11-20T06:53:18;99441.22;;;-3.71;61.45
60061;BME280;45933;51.336;12.612;2022-11-20T06:55:45;99438.75;;;-3.69;61.12
60061;BME280;45933;51.336;12.612;2022-11-20T06:58:12;99441.41;;;-3.66;60.70
60061;BME280;45933;51.336;12.612;2022-11-20T07:00:37;99443.94;;;-3.66;60.96
60061;BME280;45933;51.336;12.612;2022-11-20T07:03:07;99445.78;;;-3.63;60.78
60061;BME280;45933;51.336;12.612;2022-11-20T07:05:34;99443.09;;;-3.66;60.82
60061;BME280;45933;51.336;12.612;2022-11-20T07:08:00;99439.00;;;-3.63;60.61
60061;BME280;45933;51.336;12.612;2022-11-20T07:10:25;99436.22;;;-3.69;61.99
60061;BME280;45933;51.336;12.612;2022-11-20T07:12:52;99438.47;;;-3.75;62.26
60061;BME280;45933;51.336;12.612;2022-11-20T07:15:18;99441.72;;;-3.79;62.28
60061;BME280;45933;51.336;12.612;2022-11-20T07:17:43;99436.06;;;-3.72;61.97
60061;BME280;45933;51.336;12.612;2022-11-20T07:20:09;99431.88;;;-3.70;62.47
60061;BME280;45933;51.336;12.612;2022-11-20T07:22:34;99429.47;;;-3.67;61.80
60061;BME280;45933;51.336;12.612;2022-11-20T07:25:00;99429.53;;;-3.65;61.30
60061;BME280;45933;51.336;12.612;2022-11-20T07:27:26;99426.19;;;-3.64;60.63
60061;BME280;45933;51.336;12.612;2022-11-20T07:29:52;99428.72;;;-3.64;62.15
60061;BME280;45933;51.336;12.612;2022-11-20T07:32:17;99426.94;;;-3.67;62.73
60061;BME280;45933;51.336;12.612;2022-11-20T07:34:42;99426.50;;;-3.57;61.21
60061;BME280;45933;51.336;12.612;2022-11-20T07:37:08;99430.91;;;-3.53;61.33
60061;BME280;45933;51.336;12.612;2022-11-20T07:39:33;99430.06;;;-3.53;62.08
60061;BME280;45933;51.336;12.612;2022-11-20T07:41:58;99433.50;;;-3.51;62.32
60061;BME280;45933;51.336;12.612;2022-11-20T07:44:24;99439.03;;;-3.40;61.08
60061;BME280;45933;51.336;12.612;2022-11-20T07:46:49;99434.22;;;-3.33;63.06
60061;BME280;45933;51.336;12.612;2022-11-20T07:49:14;99435.13;;;-3.10;62.35
60061;BME280;45933;51.336;12.612;2022-11-20T07:51:40;99437.22;;;-2.77;62.52
60061;BME280;45933;51.336;12.612;2022-11-20T07:54:05;99435.38;;;-2.33;62.19
60061;BME280;45933;51.336;12.612;2022-11-20T07:56:30;99431.69;;;-1.92;60.14
60061;BME280;45933;51.336;12.612;2022-11-20T07:58:56;99423.91;;;-1.44;59.67
60061;BME280;45933;51.336;12.612;2022-11-20T08:01:21;99427.00;;;-0.99;57.83
60061;BME280;45933;51.336;12.612;2022-11-20T08:03:46;99419.06;;;-0.48;56.81
60061;BME280;45933;51.336;12.612;2022-11-20T08:06:12;99414.44;;;0.02;56.01
60061;BME280;45933;51.336;12.612;2022-11-20T08:08:37;99406.97;;;0.44;55.29
60061;BME280;45933;51.336;12.612;2022-11-20T08:11:04;99405.41;;;0.89;54.80
60061;BME280;45933;51.336;12.612;2022-11-20T08:13:48;99405.53;;;1.34;53.06
60061;BME280;45933;51.336;12.612;2022-11-20T08:16:32;99401.88;;;1.65;51.03
60061;BME280;45933;51.336;12.612;2022-11-20T08:18:57;99403.31;;;1.96;51.06
60061;BME280;45933;51.336;12.612;2022-11-20T08:21:23;99398.47;;;2.15;50.32
60061;BME280;45933;51.336;12.612;2022-11-20T08:23:49;99404.22;;;2.00;49.26
60061;BME280;45933;51.336;12.612;2022-11-20T08:26:14;99403.59;;;2.12;49.82
60061;BME280;45933;51.336;12.612;2022-11-20T08:28:39;99399.19;;;2.06;49.28
60061;BME280;45933;51.336;12.612;2022-11-20T08:31:05;99394.75;;;1.96;50.72
60061;BME280;45933;51.336;12.612;2022-11-20T08:33:34;99394.00;;;2.04;50.77
60061;BME280;45933;51.336;12.612;2022-11-20T08:36:00;99382.16;;;2.11;50.92
60061;BME280;45933;51.336;12.612;2022-11-20T08:38:26;99390.19;;;2.31;50.57
60061;BME280;45933;51.336;12.612;2022-11-20T08:40:51;99380.38;;;2.61;51.48
60061;BME280;45933;51.336;12.612;2022-11-20T08:43:35;99387.69;;;2.93;51.00
60061;BME280;45933;51.336;12.612;2022-11-20T08:46:00;99389.03;;;3.27;49.77
60061;BME280;45933;51.336;12.612;2022-11-20T08:48:25;99389.47;;;3.68;49.77
60061;BME280;45933;51.336;12.612;2022-11-20T08:50:51;99387.13;;;3.87;48.23
60061;BME280;45933;51.336;12.612;2022-11-20T08:53:16;99390.09;;;4.28;47.76
60061;BME280;45933;51.336;12.612;2022-11-20T08:55:41;99400.75;;;4.69;48.74
60061;BME280;45933;51.336;12.612;2022-11-20T08:58:07;99394.94;;;5.07;47.28
60061;BME280;45933;51.336;12.612;2022-11-20T09:00:33;99399.34;;;5.31;46.36
60061;BME280;45933;51.336;12.612;2022-11-20T09:02:58;99389.16;;;5.69;46.52
60061;BME280;45933;51.336;12.612;2022-11-20T09:05:24;99397.03;;;5.94;45.19
60061;BME280;45933;51.336;12.612;2022-11-20T09:07:50;99390.16;;;6.19;44.38
60061;BME280;45933;51.336;12.612;2022-11-20T09:10:15;99391.06;;;6.44;44.87
60061;BME280;45933;51.336;12.612;2022-11-20T09:12:40;99384.97;;;6.63;43.79
60061;BME280;45933;51.336;12.612;2022-11-20T09:15:06;99386.69;;;6.84;43.41
60061;BME280;45933;51.336;12.612;2022-11-20T09:17:32;99390.13;;;7.07;43.26
60061;BME280;45933;51.336;12.612;2022-11-20T09:19:57;99394.34;;;7.31;42.62
60061;BME280;45933;51.336;12.612;2022-11-20T09:22:23;99384.78;;;7.49;41.24
60061;BME280;45933;51.336;12.612;2022-11-20T09:24:48;99382.16;;;7.53;41.10
60061;BME280;45933;51.336;12.612;2022-11-20T09:27:14;99382.06;;;7.76;41.70
60061;BME280;45933;51.336;12.612;2022-11-20T09:29:39;99375.94;;;7.85;41.76
60061;BME280;45933;51.336;12.612;2022-11-20T09:32:05;99384.47;;;8.05;41.95
60061;BME280;45933;51.336;12.612;2022-11-20T09:34:30;99387.13;;;7.98;39.76
60061;BME280;45933;51.336;12.612;2022-11-20T09:36:55;99384.47;;;8.07;40.38
60061;BME280;45933;51.336;12.612;2022-11-20T09:39:21;99383.50;;;8.23;39.48
60061;BME280;45933;51.336;12.612;2022-11-20T09:47:31;99376.84;;;8.93;39.00
60061;BME280;45933;51.336;12.612;2022-11-20T09:50:31;99368.03;;;9.06;38.48
60061;BME280;45933;51.336;12.612;2022-11-20T09:53:30;99357.38;;;9.28;40.23
60061;BME280;45933;51.336;12.612;2022-11-20T09:56:00;99360.75;;;9.36;38.29
60061;BME280;45933;51.336;12.612;2022-11-20T09:58:39;99353.63;;;9.52;38.27
60061;BME280;45933;51.336;12.612;2022-11-20T10:01:15;99358.50;;;9.76;38.24
60061;BME280;45933;51.336;12.612;2022-11-20T10:03:58;99357.34;;;9.95;38.51
60061;BME280;45933;51.336;12.612;2022-11-20T10:07:07;99359.56;;;10.23;37.23
60061;BME280;45933;51.336;12.612;2022-11-20T10:09:39;99357.03;;;10.18;36.28
60061;BME280;45933;51.336;12.612;2022-11-20T10:12:19;99347.31;;;10.30;37.06
60061;BME280;45933;51.336;12.612;2022-11-20T10:15:16;99338.41;;;10.43;37.31
60061;BME280;45933;51.336;12.612;2022-11-20T10:18:11;99338.69;;;10.77;37.55
60061;BME280;45933;51.336;12.612;2022-11-20T10:23:36;99334.44;;;10.71;36.24
60061;BME280;45933;51.336;12.612;2022-11-20T10:28:53;99332.84;;;10.63;35.58
60061;BME280;45933;51.336;12.612;2022-11-20T10:31:33;99329.53;;;10.53;35.66
60061;BME280;45933;51.336;12.612;2022-11-20T10:34:03;99328.75;;;10.48;35.47
60061;BME280;45933;51.336;12.612;2022-11-20T10:36:36;99326.00;;;10.57;35.54
60061;BME280;45933;51.336;12.612;2022-11-20T10:39:07;99335.41;;;10.66;36.17
60061;BME280;45933;51.336;12.612;2022-11-20T10:41:44;99328.84;;;10.45;36.05
60061;BME280;45933;51.336;12.612;2022-11-20T10:44:21;99328.75;;;10.48;35.35
60061;BME280;45933;51.336;12.612;2022-11-20T10:47:15;99328.06;;;10.40;35.29
60061;BME280;45933;51.336;12.612;2022-11-20T10:49:41;99326.69;;;10.14;35.32
60061;BME280;45933;51.336;12.612;2022-11-20T10:54:49;99323.97;;;9.65;36.25
60061;BME280;45933;51.336;12.612;2022-11-20T11:00:13;99316.22;;;8.89;36.87
60061;BME280;45933;51.336;12.612;2022-11-20T11:09:30;99298.25;;;7.65;39.13
60061;BME280;45933;51.336;12.612;2022-11-20T11:11:57;99299.31;;;7.29;39.57
60061;BME280;45933;51.336;12.612;2022-11-20T11:14:22;99303.72;;;7.04;40.18
60061;BME280;45933;51.336;12.612;2022-11-20T11:16:54;99299.50;;;6.69;40.73
60061;BME280;45933;51.336;12.612;2022-11-20T11:19:20;99290.09;;;6.44;41.27
60061;BME280;45933;51.336;12.612;2022-11-20T11:21:56;99286.63;;;6.26;41.49
60061;BME280;45933;51.336;12.612;2022-11-20T11:24:26;99290.97;;;5.97;42.18
60061;BME280;45933;51.336;12.612;2022-11-20T11:27:00;99286.59;;;5.71;42.79
60061;BME280;45933;51.336;12.612;2022-11-20T11:29:34;99279.69;;;5.50;43.96
60061;BME280;45933;51.336;12.612;2022-11-20T11:32:28;99283.97;;;5.41;44.47
60061;BME280;45933;51.336;12.612;2022-11-20T11:35:06;99285.66;;;5.31;44.47
60061;BME280;45933;51.336;12.612;2022-11-20T11:37:38;99283.91;;;5.12;44.93
60061;BME280;45933;51.336;12.612;2022-11-20T11:40:05;99285.56;;;4.97;45.71
60061;BME280;45933;51.336;12.612;2022-11-20T11:42:31;99281.19;;;4.86;45.35
60061;BME280;45933;51.336;12.612;2022-11-20T11:44:58;99290.63;;;4.75;46.31
60061;BME280;45933;51.336;12.612;2022-11-20T11:47:37;99287.13;;;4.65;45.49
60061;BME280;45933;51.336;12.612;2022-11-20T11:55:36;99283.38;;;4.17;46.91
60061;BME280;45933;51.336;12.612;2022-11-20T11:58:34;99279.84;;;4.10;46.78
60061;BME280;45933;51.336;12.612;2022-11-20T12:01:15;99284.97;;;4.04;47.73
60061;BME280;45933;51.336;12.612;2022-11-20T12:03:55;99291.84;;;4.02;47.69
60061;BME280;45933;51.336;12.612;2022-11-20T12:06:25;99285.75;;;3.91;48.26
60061;BME280;45933;51.336;12.612;2022-11-20T12:08:59;99284.03;;;3.91;47.58
60061;BME280;45933;51.336;12.612;2022-11-20T12:16:52;99282.19;;;3.77;47.66
60061;BME280;45933;51.336;12.612;2022-11-20T12:19:20;99275.25;;;3.70;48.67
60061;BME280;45933;51.336;12.612;2022-11-20T12:21:56;99280.41;;;3.70;48.70
60061;BME280;45933;51.336;12.612;2022-11-20T12:30:01;99273.47;;;3.64;48.42
60061;BME280;45933;51.336;12.612;2022-11-20T12:40:28;99259.06;;;3.87;49.35
60061;BME280;45933;51.336;12.612;2022-11-20T12:43:01;99266.94;;;4.06;49.01
60061;BME280;45933;51.336;12.612;2022-11-20T12:48:42;99241.59;;;4.90;48.47
60061;BME280;45933;51.336;12.612;2022-11-20T12:51:27;99243.47;;;5.38;47.23
60061;BME280;45933;51.336;12.612;2022-11-20T13:02:27;99231.16;;;7.07;43.35
60061;BME280;45933;51.336;12.612;2022-11-20T13:07:51;99233.22;;;7.86;41.85
60061;BME280;45933;51.336;12.612;2022-11-20T13:10:22;99231.16;;;8.22;40.78
60061;BME280;45933;51.336;12.612;2022-11-20T13:13:12;99225.53;;;8.67;41.44
60061;BME280;45933;51.336;12.612;2022-11-20T13:15:56;99225.00;;;9.09;41.39
60061;BME280;45933;51.336;12.612;2022-11-20T13:18:24;99221.28;;;9.27;39.77
60061;BME280;45933;51.336;12.612;2022-11-20T13:20:50;99225.84;;;9.72;39.30
60061;BME280;45933;51.336;12.612;2022-11-20T13:23:26;99228.66;;;10.10;37.86
60061;BME280;45933;51.336;12.612;2022-11-20T13:26:16;99228.94;;;10.46;38.32
60061;BME280;45933;51.336;12.612;2022-11-20T13:28:42;99226.00;;;10.63;36.90
60061;BME280;45933;51.336;12.612;2022-11-20T13:31:34;99226.25;;;10.94;35.60
60061;BME280;45933;51.336;12.612;2022-11-20T13:34:03;99227.81;;;11.03;35.52
60061;BME280;45933;51.336;12.612;2022-11-20T13:36:29;99233.66;;;11.14;35.96
60061;BME280;45933;51.336;12.612;2022-11-20T13:38:56;99229.41;;;11.10;34.69
60061;BME280;45933;51.336;12.612;2022-11-20T13:43:57;99212.53;;;10.84;34.56
60061;BME280;45933;51.336;12.612;2022-11-20T13:46:23;99201.75;;;10.59;35.01
60061;BME280;45933;51.336;12.612;2022-11-20T13:49:09;99196.84;;;10.44;35.40
60061;BME280;45933;51.336;12.612;2022-11-20T13:51:49;99187.16;;;10.03;34.53
60061;BME280;45933;51.336;12.612;2022-11-20T13:57:15;99185.63;;;9.35;35.57
60061;BME280;45933;51.336;12.612;2022-11-20T13:59:56;99191.28;;;9.05;36.00
60061;BME280;45933;51.336;12.612;2022-11-20T14:02:23;99195.28;;;8.62;36.45
60061;BME280;45933;51.336;12.612;2022-11-20T14:04:53;99207.03;;;8.14;36.87
60061;BME280;45933;51.336;12.612;2022-11-20T14:07:21;99205.53;;;7.85;38.10
60061;BME280;45933;51.336;12.612;2022-11-20T14:09:52;99203.94;;;7.69;38.44
60061;BME280;45933;51.336;12.612;2022-11-20T14:12:21;99193.66;;;7.58;38.77
60061;BME280;45933;51.336;12.612;2022-11-20T14:14:52;99200.63;;;7.55;39.38